Time,TemperatureF,DewpointF,PressureIn,WindDirection,WindDirectionDegrees,WindSpeedMPH,WindSpeedGustMPH,Humidity,HourlyPrecipIn,Conditions,Clouds,dailyrainin,SoftwareType,DateUTC
2013-10-31 00:02:00,54.5,37.2,-100.00,North,-999,-999.0,-999.0,52,-99.99,,---,-99.99,VWS V14.01,2013-10-31 07:02:00,
2013-10-31 00:07:00,54.5,37.2,-100.00,North,-999,-999.0,-999.0,52,-99.99,,---,-99.99,VWS V14.01,2013-10-31 07:07:00,
2013-10-31 00:12:00,54.3,37.1,-100.00,North,-999,-999.0,-999.0,52,-99.99,,---,-99.99,VWS V14.01,2013-10-31 07:12:00,
2013-10-31 00:17:00,54.0,36.8,-100.00,North,-999,-999.0,-999.0,52,-99.99,,---,-99.99,VWS V14.01,2013-10-31 07:17:00,
2013-10-31 00:22:00,53.8,36.6,-100.00,North,-999,-999.0,-999.0,52,-99.99,,---,-99.99,VWS V14.01,2013-10-31 07:22:00,
2013-10-31 00:27:00,53.8,36.6,-100.00,North,-999,-999.0,-999.0,52,-99.99,,---,-99.99,VWS V14.01,2013-10-31 07:27:00,
2013-10-31 00:32:00,53.6,36.4,-100.00,North,-999,-999.0,-999.0,52,-99.99,,---,-99.99,VWS V14.01,2013-10-31 07:32:00,
2013-10-31 00:37:00,53.4,36.7,-100.00,North,-999,-999.0,-999.0,53,-99.99,,---,-99.99,VWS V14.01,2013-10-31 07:37:00,
2013-10-31 00:42:00,53.2,36.6,-100.00,North,-999,-999.0,-999.0,53,-99.99,,---,-99.99,VWS V14.01,2013-10-31 07:42:00,
2013-10-31 00:47:00,53.2,36.6,-100.00,North,-999,-999.0,-999.0,53,-99.99,,---,-99.99,VWS V14.01,2013-10-31 07:47:00,
2013-10-31 00:52:00,53.1,36.4,-100.00,North,-999,-999.0,-999.0,53,-99.99,,---,-99.99,VWS V14.01,2013-10-31 07:52:00,
2013-10-31 00:57:00,53.1,36.4,-100.00,North,-999,-999.0,-999.0,53,-99.99,,---,-99.99,VWS V14.01,2013-10-31 07:57:00,
2013-10-31 01:02:00,53.1,36.4,-100.00,North,-999,-999.0,-999.0,53,-99.99,,---,-99.99,VWS V14.01,2013-10-31 08:02:00,
2013-10-31 01:17:00,52.3,35.7,-100.00,North,-999,-999.0,-999.0,53,-99.99,,---,-99.99,VWS V14.01,2013-10-31 08:17:00,
2013-10-31 01:22:00,52.2,35.6,-100.00,North,-999,-999.0,-999.0,53,-99.99,,---,-99.99,VWS V14.01,2013-10-31 08:22:00,
2013-10-31 01:27:00,52.0,35.4,-100.00,North,-999,-999.0,-999.0,53,-99.99,,---,-99.99,VWS V14.01,2013-10-31 08:27:00,
2013-10-31 01:32:00,52.0,35.4,-100.00,North,-999,-999.0,-999.0,53,-99.99,,---,-99.99,VWS V14.01,2013-10-31 08:32:00,
2013-10-31 01:37:00,51.8,35.7,-100.00,North,-999,-999.0,-999.0,54,-99.99,,---,-99.99,VWS V14.01,2013-10-31 08:37:00,
2013-10-31 01:42:00,51.8,35.7,-100.00,North,-999,-999.0,-999.0,54,-99.99,,---,-99.99,VWS V14.01,2013-10-31 08:42:00,
2013-10-31 01:47:00,51.8,35.7,-100.00,North,-999,-999.0,-999.0,54,-99.99,,---,-99.99,VWS V14.01,2013-10-31 08:47:00,
2013-10-31 01:52:00,51.8,35.7,-100.00,North,-999,-999.0,-999.0,54,-99.99,,---,-99.99,VWS V14.01,2013-10-31 08:52:00,
2013-10-31 01:57:00,51.8,35.7,-100.00,North,-999,-999.0,-999.0,54,-99.99,,---,-99.99,VWS V14.01,2013-10-31 08:57:00,
2013-10-31 02:02:00,51.8,35.7,-100.00,North,-999,-999.0,-999.0,54,-99.99,,---,-99.99,VWS V14.01,2013-10-31 09:02:00,
2013-10-31 04:02:00,49.8,35.2,-100.00,North,-999,-999.0,-999.0,57,-99.99,,---,-99.99,VWS V14.01,2013-10-31 11:02:00,
2013-10-31 04:07:00,49.6,35.0,-100.00,North,-999,-999.0,-999.0,57,-99.99,,---,-99.99,VWS V14.01,2013-10-31 11:07:00,
2013-10-31 04:12:00,49.6,35.0,-100.00,North,-999,-999.0,-999.0,57,-99.99,,---,-99.99,VWS V14.01,2013-10-31 11:12:00,
2013-10-31 04:17:00,49.6,35.0,-100.00,North,-999,-999.0,-999.0,57,-99.99,,---,-99.99,VWS V14.01,2013-10-31 11:17:00,
2013-10-31 04:22:00,49.5,34.9,-100.00,North,-999,-999.0,-999.0,57,-99.99,,---,-99.99,VWS V14.01,2013-10-31 11:22:00,
2013-10-31 04:27:00,49.5,34.9,-100.00,North,-999,-999.0,-999.0,57,-99.99,,---,-99.99,VWS V14.01,2013-10-31 11:27:00,
2013-10-31 04:32:00,49.3,34.7,-100.00,North,-999,-999.0,-999.0,57,-99.99,,---,-99.99,VWS V14.01,2013-10-31 11:32:00,
2013-10-31 04:37:00,49.1,34.5,-100.00,North,-999,-999.0,-999.0,57,-99.99,,---,-99.99,VWS V14.01,2013-10-31 11:37:00,
2013-10-31 04:42:00,49.1,34.5,-100.00,North,-999,-999.0,-999.0,57,-99.99,,---,-99.99,VWS V14.01,2013-10-31 11:42:00,
2013-10-31 04:47:00,49.1,34.5,-100.00,North,-999,-999.0,-999.0,57,-99.99,,---,-99.99,VWS V14.01,2013-10-31 11:47:00,
2013-10-31 04:52:00,49.1,35.0,-100.00,North,-999,-999.0,-999.0,58,-99.99,,---,-99.99,VWS V14.01,2013-10-31 11:52:00,
2013-10-31 04:57:00,49.1,35.0,-100.00,North,-999,-999.0,-999.0,58,-99.99,,---,-99.99,VWS V14.01,2013-10-31 11:57:00,
2013-10-31 05:02:00,49.1,35.0,-100.00,North,-999,-999.0,-999.0,58,-99.99,,---,-99.99,VWS V14.01,2013-10-31 12:02:00,
2013-10-31 05:07:00,48.9,34.8,-100.00,North,-999,-999.0,-999.0,58,-99.99,,---,-99.99,VWS V14.01,2013-10-31 12:07:00,
2013-10-31 05:12:00,48.9,34.8,-100.00,North,-999,-999.0,-999.0,58,-99.99,,---,-99.99,VWS V14.01,2013-10-31 12:12:00,
2013-10-31 05:17:00,48.9,34.8,-100.00,North,-999,-999.0,-999.0,58,-99.99,,---,-99.99,VWS V14.01,2013-10-31 12:17:00,
2013-10-31 05:22:00,48.9,34.8,-100.00,North,-999,-999.0,-999.0,58,-99.99,,---,-99.99,VWS V14.01,2013-10-31 12:22:00,
2013-10-31 05:27:00,48.7,34.6,-100.00,North,-999,-999.0,-999.0,58,-99.99,,---,-99.99,VWS V14.01,2013-10-31 12:27:00,
2013-10-31 05:32:00,48.4,34.3,-100.00,North,-999,-999.0,-999.0,58,-99.99,,---,-99.99,VWS V14.01,2013-10-31 12:32:00,
2013-10-31 05:37:00,48.2,34.1,-100.00,North,-999,-999.0,-999.0,58,-99.99,,---,-99.99,VWS V14.01,2013-10-31 12:37:00,
2013-10-31 05:42:00,48.2,34.1,-100.00,North,-999,-999.0,-999.0,58,-99.99,,---,-99.99,VWS V14.01,2013-10-31 12:42:00,
2013-10-31 05:47:00,48.0,34.4,-100.00,North,-999,-999.0,-999.0,59,-99.99,,---,-99.99,VWS V14.01,2013-10-31 12:47:00,
2013-10-31 05:52:00,48.0,34.4,-100.00,North,-999,-999.0,-999.0,59,-99.99,,---,-99.99,VWS V14.01,2013-10-31 12:52:00,
2013-10-31 05:57:00,47.8,34.2,-100.00,North,-999,-999.0,-999.0,59,-99.99,,---,-99.99,VWS V14.01,2013-10-31 12:57:00,
2013-10-31 06:02:00,47.7,34.0,-100.00,North,-999,-999.0,-999.0,59,-99.99,,---,-99.99,VWS V14.01,2013-10-31 13:02:00,
2013-10-31 06:07:00,47.7,34.0,-100.00,North,-999,-999.0,-999.0,59,-99.99,,---,-99.99,VWS V14.01,2013-10-31 13:07:00,
2013-10-31 06:12:00,47.7,34.0,-100.00,North,-999,-999.0,-999.0,59,-99.99,,---,-99.99,VWS V14.01,2013-10-31 13:12:00,
2013-10-31 06:17:00,47.7,34.0,-100.00,North,-999,-999.0,-999.0,59,-99.99,,---,-99.99,VWS V14.01,2013-10-31 13:17:00,
2013-10-31 06:22:00,47.7,34.0,-100.00,North,-999,-999.0,-999.0,59,-99.99,,---,-99.99,VWS V14.01,2013-10-31 13:22:00,
2013-10-31 06:27:00,47.7,34.0,-100.00,North,-999,-999.0,-999.0,59,-99.99,,---,-99.99,VWS V14.01,2013-10-31 13:27:00,
2013-10-31 06:32:00,47.7,34.0,-100.00,North,-999,-999.0,-999.0,59,-99.99,,---,-99.99,VWS V14.01,2013-10-31 13:32:00,
2013-10-31 06:37:00,47.7,34.5,-100.00,North,-999,-999.0,-999.0,60,-99.99,,---,-99.99,VWS V14.01,2013-10-31 13:37:00,
2013-10-31 06:42:00,47.7,34.5,-100.00,North,-999,-999.0,-999.0,60,-99.99,,---,-99.99,VWS V14.01,2013-10-31 13:42:00,
2013-10-31 06:47:00,47.8,34.6,-100.00,North,-999,-999.0,-999.0,60,-99.99,,---,-99.99,VWS V14.01,2013-10-31 13:47:00,
2013-10-31 06:52:00,47.7,34.5,-100.00,North,-999,-999.0,-999.0,60,-99.99,,---,-99.99,VWS V14.01,2013-10-31 13:52:00,
2013-10-31 06:57:00,47.7,34.5,-100.00,North,-999,-999.0,-999.0,60,-99.99,,---,-99.99,VWS V14.01,2013-10-31 13:57:00,
2013-10-31 07:02:00,47.7,34.5,-100.00,North,-999,-999.0,-999.0,60,-99.99,,---,-99.99,VWS V14.01,2013-10-31 14:02:00,
2013-10-31 07:07:00,47.5,34.3,-100.00,North,-999,-999.0,-999.0,60,-99.99,,---,-99.99,VWS V14.01,2013-10-31 14:07:00,
2013-10-31 07:12:00,47.5,34.3,-100.00,North,-999,-999.0,-999.0,60,-99.99,,---,-99.99,VWS V14.01,2013-10-31 14:12:00,
2013-10-31 07:17:00,47.5,34.3,-100.00,North,-999,-999.0,-999.0,60,-99.99,,---,-99.99,VWS V14.01,2013-10-31 14:17:00,
2013-10-31 07:22:00,47.5,34.3,-100.00,North,-999,-999.0,-999.0,60,-99.99,,---,-99.99,VWS V14.01,2013-10-31 14:22:00,
2013-10-31 07:27:00,47.5,34.3,-100.00,North,-999,-999.0,-999.0,60,-99.99,,---,-99.99,VWS V14.01,2013-10-31 14:27:00,
2013-10-31 07:32:00,47.3,34.1,-100.00,North,-999,-999.0,-999.0,60,-99.99,,---,-99.99,VWS V14.01,2013-10-31 14:32:00,
2013-10-31 07:37:00,47.3,34.1,-100.00,North,-999,-999.0,-999.0,60,-99.99,,---,-99.99,VWS V14.01,2013-10-31 14:37:00,
2013-10-31 07:42:00,47.1,34.0,-100.00,North,-999,-999.0,-999.0,60,-99.99,,---,-99.99,VWS V14.01,2013-10-31 14:42:00,
2013-10-31 07:47:00,47.1,34.4,-100.00,North,-999,-999.0,-999.0,61,-99.99,,---,-99.99,VWS V14.01,2013-10-31 14:47:00,
2013-10-31 07:52:00,47.3,34.5,-100.00,North,-999,-999.0,-999.0,61,-99.99,,---,-99.99,VWS V14.01,2013-10-31 14:52:00,
2013-10-31 07:57:00,47.1,34.4,-100.00,North,-999,-999.0,-999.0,61,-99.99,,---,-99.99,VWS V14.01,2013-10-31 14:57:00,
2013-10-31 08:02:00,47.3,34.5,-100.00,North,-999,-999.0,-999.0,61,-99.99,,---,-99.99,VWS V14.01,2013-10-31 15:02:00,
2013-10-31 08:07:00,47.5,34.7,-100.00,North,-999,-999.0,-999.0,61,-99.99,,---,-99.99,VWS V14.01,2013-10-31 15:07:00,
2013-10-31 08:12:00,47.7,34.9,-100.00,North,-999,-999.0,-999.0,61,-99.99,,---,-99.99,VWS V14.01,2013-10-31 15:12:00,
2013-10-31 08:17:00,48.2,35.4,-100.00,North,-999,-999.0,-999.0,61,-99.99,,---,-99.99,VWS V14.01,2013-10-31 15:17:00,
2013-10-31 08:22:00,48.6,35.7,-100.00,North,-999,-999.0,-999.0,61,-99.99,,---,-99.99,VWS V14.01,2013-10-31 15:22:00,
2013-10-31 08:27:00,48.9,36.1,-100.00,North,-999,-999.0,-999.0,61,-99.99,,---,-99.99,VWS V14.01,2013-10-31 15:27:00,
2013-10-31 08:32:00,49.3,36.0,-100.00,North,-999,-999.0,-999.0,60,-99.99,,---,-99.99,VWS V14.01,2013-10-31 15:32:00,
2013-10-31 08:37:00,49.6,36.3,-100.00,North,-999,-999.0,-999.0,60,-99.99,,---,-99.99,VWS V14.01,2013-10-31 15:37:00,
2013-10-31 08:42:00,50.0,36.7,-100.00,North,-999,-999.0,-999.0,60,-99.99,,---,-99.99,VWS V14.01,2013-10-31 15:42:00,
2013-10-31 08:47:00,50.4,37.0,-100.00,North,-999,-999.0,-999.0,60,-99.99,,---,-99.99,VWS V14.01,2013-10-31 15:47:00,
2013-10-31 08:52:00,50.7,37.4,-100.00,North,-999,-999.0,-999.0,60,-99.99,,---,-99.99,VWS V14.01,2013-10-31 15:52:00,
2013-10-31 08:57:00,51.1,37.7,-100.00,North,-999,-999.0,-999.0,60,-99.99,,---,-99.99,VWS V14.01,2013-10-31 15:57:00,
2013-10-31 09:02:00,51.3,37.9,-100.00,North,-999,-999.0,-999.0,60,-99.99,,---,-99.99,VWS V14.01,2013-10-31 16:02:00,
2013-10-31 09:59:00,56.3,41.7,-100.00,North,-999,-999.0,-999.0,58,-99.99,,---,-99.99,VWS V14.01,2013-10-31 16:59:00,
2013-10-31 10:04:00,56.5,41.5,-100.00,North,-999,-999.0,-999.0,57,-99.99,,---,-99.99,VWS V14.01,2013-10-31 17:04:00,
2013-10-31 10:09:00,56.8,41.8,-100.00,North,-999,-999.0,-999.0,57,-99.99,,---,-99.99,VWS V14.01,2013-10-31 17:09:00,
2013-10-31 10:14:00,57.0,42.0,-100.00,North,-999,-999.0,-999.0,57,-99.99,,---,-99.99,VWS V14.01,2013-10-31 17:14:00,
2013-10-31 10:19:00,57.4,42.3,-100.00,North,-999,-999.0,-999.0,57,-99.99,,---,-99.99,VWS V14.01,2013-10-31 17:19:00,
2013-10-31 10:24:00,57.9,42.3,-100.00,North,-999,-999.0,-999.0,56,-99.99,,---,-99.99,VWS V14.01,2013-10-31 17:24:00,
2013-10-31 10:29:00,58.1,42.5,-100.00,North,-999,-999.0,-999.0,56,-99.99,,---,-99.99,VWS V14.01,2013-10-31 17:29:00,
2013-10-31 10:34:00,58.3,42.7,-100.00,North,-999,-999.0,-999.0,56,-99.99,,---,-99.99,VWS V14.01,2013-10-31 17:34:00,
2013-10-31 10:39:00,58.5,42.8,-100.00,North,-999,-999.0,-999.0,56,-99.99,,---,-99.99,VWS V14.01,2013-10-31 17:39:00,
2013-10-31 10:44:00,58.5,42.8,-100.00,North,-999,-999.0,-999.0,56,-99.99,,---,-99.99,VWS V14.01,2013-10-31 17:44:00,
2013-10-31 10:49:00,58.5,42.8,-100.00,North,-999,-999.0,-999.0,56,-99.99,,---,-99.99,VWS V14.01,2013-10-31 17:49:00,
2013-10-31 10:54:00,59.5,43.4,-100.00,North,-999,-999.0,-999.0,55,-99.99,,---,-99.99,VWS V14.01,2013-10-31 17:54:00,
2013-10-31 10:59:00,59.5,43.4,-100.00,North,-999,-999.0,-999.0,55,-99.99,,---,-99.99,VWS V14.01,2013-10-31 17:59:00,
2013-10-31 11:04:00,59.5,43.4,-100.00,North,-999,-999.0,-999.0,55,-99.99,,---,-99.99,VWS V14.01,2013-10-31 18:04:00,
2013-10-31 11:09:00,59.5,43.4,-100.00,North,-999,-999.0,-999.0,55,-99.99,,---,-99.99,VWS V14.01,2013-10-31 18:09:00,
2013-10-31 11:14:00,59.5,43.4,-100.00,North,-999,-999.0,-999.0,55,-99.99,,---,-99.99,VWS V14.01,2013-10-31 18:14:00,
2013-10-31 11:19:00,61.0,44.2,-100.00,North,-999,-999.0,-999.0,54,-99.99,,---,-99.99,VWS V14.01,2013-10-31 18:19:00,
2013-10-31 11:24:00,61.3,44.1,-100.00,North,-999,-999.0,-999.0,53,-99.99,,---,-99.99,VWS V14.01,2013-10-31 18:24:00,
2013-10-31 11:29:00,61.9,44.6,-100.00,North,-999,-999.0,-999.0,53,-99.99,,---,-99.99,VWS V14.01,2013-10-31 18:29:00,
2013-10-31 11:34:00,62.4,45.1,-100.00,North,-999,-999.0,-999.0,53,-99.99,,---,-99.99,VWS V14.01,2013-10-31 18:34:00,
2013-10-31 11:39:00,63.0,45.1,-100.00,North,-999,-999.0,-999.0,52,-99.99,,---,-99.99,VWS V14.01,2013-10-31 18:39:00,
2013-10-31 11:44:00,63.5,45.6,-100.00,North,-999,-999.0,-999.0,52,-99.99,,---,-99.99,VWS V14.01,2013-10-31 18:44:00,
2013-10-31 11:49:00,63.7,45.8,-100.00,North,-999,-999.0,-999.0,52,-99.99,,---,-99.99,VWS V14.01,2013-10-31 18:49:00,
2013-10-31 11:54:00,64.0,46.1,-100.00,North,-999,-999.0,-999.0,52,-99.99,,---,-99.99,VWS V14.01,2013-10-31 18:54:00,
2013-10-31 11:59:00,64.0,45.6,-100.00,North,-999,-999.0,-999.0,51,-99.99,,---,-99.99,VWS V14.01,2013-10-31 18:59:00,
2013-10-31 12:04:00,64.2,45.7,-100.00,North,-999,-999.0,-999.0,51,-99.99,,---,-99.99,VWS V14.01,2013-10-31 19:04:00,
2013-10-31 12:09:00,64.8,46.2,-100.00,North,-999,-999.0,-999.0,51,-99.99,,---,-99.99,VWS V14.01,2013-10-31 19:09:00,
2013-10-31 12:14:00,65.3,46.2,-100.00,North,-999,-999.0,-999.0,50,-99.99,,---,-99.99,VWS V14.01,2013-10-31 19:14:00,
2013-10-31 12:19:00,65.8,46.7,-100.00,North,-999,-999.0,-999.0,50,-99.99,,---,-99.99,VWS V14.01,2013-10-31 19:19:00,
2013-10-31 12:24:00,66.0,46.3,-100.00,North,-999,-999.0,-999.0,49,-99.99,,---,-99.99,VWS V14.01,2013-10-31 19:24:00,
2013-10-31 12:29:00,66.4,46.1,-100.00,North,-999,-999.0,-999.0,48,-99.99,,---,-99.99,VWS V14.01,2013-10-31 19:29:00,
2013-10-31 12:34:00,66.4,46.1,-100.00,North,-999,-999.0,-999.0,48,-99.99,,---,-99.99,VWS V14.01,2013-10-31 19:34:00,
2013-10-31 12:39:00,66.9,46.6,-100.00,North,-999,-999.0,-999.0,48,-99.99,,---,-99.99,VWS V14.01,2013-10-31 19:39:00,
2013-10-31 12:44:00,67.3,46.4,-100.00,North,-999,-999.0,-999.0,47,-99.99,,---,-99.99,VWS V14.01,2013-10-31 19:44:00,
2013-10-31 12:49:00,67.5,46.5,-100.00,North,-999,-999.0,-999.0,47,-99.99,,---,-99.99,VWS V14.01,2013-10-31 19:49:00,
2013-10-31 12:53:00,67.6,46.7,-100.00,North,-999,-999.0,-999.0,47,-99.99,,---,-99.99,VWS V14.01,2013-10-31 19:53:00,
2013-10-31 12:58:00,68.0,46.5,-100.00,North,-999,-999.0,-999.0,46,-99.99,,---,-99.99,VWS V14.01,2013-10-31 19:58:00,
2013-10-31 13:04:00,68.4,46.8,-100.00,North,-999,-999.0,-999.0,46,-99.99,,---,-99.99,VWS V14.01,2013-10-31 20:04:00,
2013-10-31 13:09:00,68.5,47.0,-100.00,North,-999,-999.0,-999.0,46,-99.99,,---,-99.99,VWS V14.01,2013-10-31 20:09:00,
2013-10-31 13:14:00,68.7,46.5,-100.00,North,-999,-999.0,-999.0,45,-99.99,,---,-99.99,VWS V14.01,2013-10-31 20:14:00,
2013-10-31 13:19:00,68.7,46.5,-100.00,North,-999,-999.0,-999.0,45,-99.99,,---,-99.99,VWS V14.01,2013-10-31 20:19:00,
2013-10-31 13:24:00,69.1,46.9,-100.00,North,-999,-999.0,-999.0,45,-99.99,,---,-99.99,VWS V14.01,2013-10-31 20:24:00,
2013-10-31 13:29:00,69.3,47.0,-100.00,North,-999,-999.0,-999.0,45,-99.99,,---,-99.99,VWS V14.01,2013-10-31 20:29:00,
2013-10-31 13:34:00,69.4,47.2,-100.00,North,-999,-999.0,-999.0,45,-99.99,,---,-99.99,VWS V14.01,2013-10-31 20:34:00,
2013-10-31 13:39:00,69.4,46.6,-100.00,North,-999,-999.0,-999.0,44,-99.99,,---,-99.99,VWS V14.01,2013-10-31 20:39:00,
2013-10-31 13:44:00,69.6,46.8,-100.00,North,-999,-999.0,-999.0,44,-99.99,,---,-99.99,VWS V14.01,2013-10-31 20:44:00,
2013-10-31 13:49:00,69.4,46.6,-100.00,North,-999,-999.0,-999.0,44,-99.99,,---,-99.99,VWS V14.01,2013-10-31 20:49:00,
2013-10-31 13:54:00,69.8,46.9,-100.00,North,-999,-999.0,-999.0,44,-99.99,,---,-99.99,VWS V14.01,2013-10-31 20:54:00,
2013-10-31 13:59:00,70.0,46.5,-100.00,North,-999,-999.0,-999.0,43,-99.99,,---,-99.99,VWS V14.01,2013-10-31 20:59:00,
2013-10-31 14:04:00,70.0,46.5,-100.00,North,-999,-999.0,-999.0,43,-99.99,,---,-99.99,VWS V14.01,2013-10-31 21:04:00,
2013-10-31 14:09:00,70.3,46.8,-100.00,North,-999,-999.0,-999.0,43,-99.99,,---,-99.99,VWS V14.01,2013-10-31 21:09:00,
2013-10-31 14:14:00,70.3,46.8,-100.00,North,-999,-999.0,-999.0,43,-99.99,,---,-99.99,VWS V14.01,2013-10-31 21:14:00,
2013-10-31 14:19:00,70.3,46.8,-100.00,North,-999,-999.0,-999.0,43,-99.99,,---,-99.99,VWS V14.01,2013-10-31 21:19:00,
2013-10-31 14:24:00,70.5,47.0,-100.00,North,-999,-999.0,-999.0,43,-99.99,,---,-99.99,VWS V14.01,2013-10-31 21:24:00,
2013-10-31 14:29:00,70.5,47.0,-100.00,North,-999,-999.0,-999.0,43,-99.99,,---,-99.99,VWS V14.01,2013-10-31 21:29:00,
2013-10-31 14:34:00,70.7,47.1,-100.00,North,-999,-999.0,-999.0,43,-99.99,,---,-99.99,VWS V14.01,2013-10-31 21:34:00,
2013-10-31 14:39:00,70.7,46.5,-100.00,North,-999,-999.0,-999.0,42,-99.99,,---,-99.99,VWS V14.01,2013-10-31 21:39:00,
2013-10-31 14:44:00,70.9,46.7,-100.00,North,-999,-999.0,-999.0,42,-99.99,,---,-99.99,VWS V14.01,2013-10-31 21:44:00,
2013-10-31 14:49:00,70.9,46.7,-100.00,North,-999,-999.0,-999.0,42,-99.99,,---,-99.99,VWS V14.01,2013-10-31 21:49:00,
2013-10-31 14:54:00,70.9,46.7,-100.00,North,-999,-999.0,-999.0,42,-99.99,,---,-99.99,VWS V14.01,2013-10-31 21:54:00,
2013-10-31 14:59:00,70.9,46.7,-100.00,North,-999,-999.0,-999.0,42,-99.99,,---,-99.99,VWS V14.01,2013-10-31 21:59:00,
2013-10-31 15:04:00,70.9,46.7,-100.00,North,-999,-999.0,-999.0,42,-99.99,,---,-99.99,VWS V14.01,2013-10-31 22:04:00,
2013-10-31 15:13:00,70.9,46.7,-100.00,North,-999,-999.0,-999.0,42,-99.99,,---,-99.99,VWS V14.01,2013-10-31 22:13:00,
2013-10-31 15:18:00,70.7,45.9,-100.00,North,-999,-999.0,-999.0,41,-99.99,,---,-99.99,VWS V14.01,2013-10-31 22:18:00,
2013-10-31 15:23:00,70.7,45.9,-100.00,North,-999,-999.0,-999.0,41,-99.99,,---,-99.99,VWS V14.01,2013-10-31 22:23:00,
2013-10-31 15:28:00,70.7,45.9,-100.00,North,-999,-999.0,-999.0,41,-99.99,,---,-99.99,VWS V14.01,2013-10-31 22:28:00,
2013-10-31 15:33:00,70.7,45.9,-100.00,North,-999,-999.0,-999.0,41,-99.99,,---,-99.99,VWS V14.01,2013-10-31 22:33:00,
2013-10-31 15:38:00,70.7,45.9,-100.00,North,-999,-999.0,-999.0,41,-99.99,,---,-99.99,VWS V14.01,2013-10-31 22:38:00,
2013-10-31 15:43:00,70.7,45.9,-100.00,North,-999,-999.0,-999.0,41,-99.99,,---,-99.99,VWS V14.01,2013-10-31 22:43:00,
2013-10-31 15:48:00,70.7,45.9,-100.00,North,-999,-999.0,-999.0,41,-99.99,,---,-99.99,VWS V14.01,2013-10-31 22:48:00,
2013-10-31 15:53:00,70.7,45.9,-100.00,North,-999,-999.0,-999.0,41,-99.99,,---,-99.99,VWS V14.01,2013-10-31 22:53:00,
2013-10-31 15:58:00,70.7,45.9,-100.00,North,-999,-999.0,-999.0,41,-99.99,,---,-99.99,VWS V14.01,2013-10-31 22:58:00,
2013-10-31 16:03:00,70.5,45.7,-100.00,North,-999,-999.0,-999.0,41,-99.99,,---,-99.99,VWS V14.01,2013-10-31 23:03:00,
2013-10-31 16:08:00,70.7,45.2,-100.00,North,-999,-999.0,-999.0,40,-99.99,,---,-99.99,VWS V14.01,2013-10-31 23:08:00,
2013-10-31 16:13:00,70.7,45.2,-100.00,North,-999,-999.0,-999.0,40,-99.99,,---,-99.99,VWS V14.01,2013-10-31 23:13:00,
2013-10-31 16:18:00,70.7,45.2,-100.00,North,-999,-999.0,-999.0,40,-99.99,,---,-99.99,VWS V14.01,2013-10-31 23:18:00,
2013-10-31 16:23:00,70.5,45.1,-100.00,North,-999,-999.0,-999.0,40,-99.99,,---,-99.99,VWS V14.01,2013-10-31 23:23:00,
2013-10-31 16:28:00,70.5,45.1,-100.00,North,-999,-999.0,-999.0,40,-99.99,,---,-99.99,VWS V14.01,2013-10-31 23:28:00,
2013-10-31 16:33:00,70.5,44.4,-100.00,North,-999,-999.0,-999.0,39,-99.99,,---,-99.99,VWS V14.01,2013-10-31 23:33:00,
2013-10-31 16:38:00,70.5,44.4,-100.00,North,-999,-999.0,-999.0,39,-99.99,,---,-99.99,VWS V14.01,2013-10-31 23:38:00,
2013-10-31 16:43:00,70.5,44.4,-100.00,North,-999,-999.0,-999.0,39,-99.99,,---,-99.99,VWS V14.01,2013-10-31 23:43:00,
2013-10-31 16:48:00,70.5,44.4,-100.00,North,-999,-999.0,-999.0,39,-99.99,,---,-99.99,VWS V14.01,2013-10-31 23:48:00,
2013-10-31 16:53:00,70.5,44.4,-100.00,North,-999,-999.0,-999.0,39,-99.99,,---,-99.99,VWS V14.01,2013-10-31 23:53:00,
2013-10-31 16:58:00,70.5,44.4,-100.00,North,-999,-999.0,-999.0,39,-99.99,,---,-99.99,VWS V14.01,2013-10-31 23:58:00,
2013-10-31 17:03:00,70.3,44.2,-100.00,North,-999,-999.0,-999.0,39,-99.99,,---,-99.99,VWS V14.01,2013-11-01 00:03:00,
2013-10-31 17:08:00,70.3,44.2,-100.00,North,-999,-999.0,-999.0,39,-99.99,,---,-99.99,VWS V14.01,2013-11-01 00:08:00,
2013-10-31 17:13:00,70.3,44.2,-100.00,North,-999,-999.0,-999.0,39,-99.99,,---,-99.99,VWS V14.01,2013-11-01 00:13:00,
2013-10-31 17:18:00,70.2,44.1,-100.00,North,-999,-999.0,-999.0,39,-99.99,,---,-99.99,VWS V14.01,2013-11-01 00:18:00,
2013-10-31 17:23:00,70.2,44.1,-100.00,North,-999,-999.0,-999.0,39,-99.99,,---,-99.99,VWS V14.01,2013-11-01 00:23:00,
2013-10-31 17:28:00,70.0,43.2,-100.00,North,-999,-999.0,-999.0,38,-99.99,,---,-99.99,VWS V14.01,2013-11-01 00:28:00,
2013-10-31 17:33:00,70.0,43.2,-100.00,North,-999,-999.0,-999.0,38,-99.99,,---,-99.99,VWS V14.01,2013-11-01 00:33:00,
2013-10-31 17:38:00,69.8,43.1,-100.00,North,-999,-999.0,-999.0,38,-99.99,,---,-99.99,VWS V14.01,2013-11-01 00:38:00,
2013-10-31 17:43:00,69.8,43.1,-100.00,North,-999,-999.0,-999.0,38,-99.99,,---,-99.99,VWS V14.01,2013-11-01 00:43:00,
2013-10-31 17:48:00,69.6,42.9,-100.00,North,-999,-999.0,-999.0,38,-99.99,,---,-99.99,VWS V14.01,2013-11-01 00:48:00,
2013-10-31 17:53:00,69.4,42.8,-100.00,North,-999,-999.0,-999.0,38,-99.99,,---,-99.99,VWS V14.01,2013-11-01 00:53:00,
2013-10-31 17:58:00,69.3,42.6,-100.00,North,-999,-999.0,-999.0,38,-99.99,,---,-99.99,VWS V14.01,2013-11-01 00:58:00,
2013-10-31 18:03:00,69.1,42.4,-100.00,North,-999,-999.0,-999.0,38,-99.99,,---,-99.99,VWS V14.01,2013-11-01 01:03:00,
2013-10-31 18:08:00,69.1,42.4,-100.00,North,-999,-999.0,-999.0,38,-99.99,,---,-99.99,VWS V14.01,2013-11-01 01:08:00,
2013-10-31 18:13:00,68.9,42.3,-100.00,North,-999,-999.0,-999.0,38,-99.99,,---,-99.99,VWS V14.01,2013-11-01 01:13:00,
2013-10-31 18:18:00,68.7,42.1,-100.00,North,-999,-999.0,-999.0,38,-99.99,,---,-99.99,VWS V14.01,2013-11-01 01:18:00,
2013-10-31 18:23:00,68.5,42.0,-100.00,North,-999,-999.0,-999.0,38,-99.99,,---,-99.99,VWS V14.01,2013-11-01 01:23:00,
2013-10-31 18:28:00,68.4,41.8,-100.00,North,-999,-999.0,-999.0,38,-99.99,,---,-99.99,VWS V14.01,2013-11-01 01:28:00,
2013-10-31 18:33:00,68.2,41.6,-100.00,North,-999,-999.0,-999.0,38,-99.99,,---,-99.99,VWS V14.01,2013-11-01 01:33:00,
2013-10-31 18:38:00,68.2,42.3,-100.00,North,-999,-999.0,-999.0,39,-99.99,,---,-99.99,VWS V14.01,2013-11-01 01:38:00,
2013-10-31 18:43:00,68.0,42.1,-100.00,North,-999,-999.0,-999.0,39,-99.99,,---,-99.99,VWS V14.01,2013-11-01 01:43:00,
2013-10-31 18:48:00,67.8,42.0,-100.00,North,-999,-999.0,-999.0,39,-99.99,,---,-99.99,VWS V14.01,2013-11-01 01:48:00,
2013-10-31 18:53:00,67.6,42.5,-100.00,North,-999,-999.0,-999.0,40,-99.99,,---,-99.99,VWS V14.01,2013-11-01 01:53:00,
2013-10-31 18:58:00,67.6,42.5,-100.00,North,-999,-999.0,-999.0,40,-99.99,,---,-99.99,VWS V14.01,2013-11-01 01:58:00,
2013-10-31 19:03:00,67.5,42.3,-100.00,North,-999,-999.0,-999.0,40,-99.99,,---,-99.99,VWS V14.01,2013-11-01 02:03:00,
2013-10-31 19:08:00,67.3,42.2,-100.00,North,-999,-999.0,-999.0,40,-99.99,,---,-99.99,VWS V14.01,2013-11-01 02:08:00,
2013-10-31 19:13:00,67.1,42.6,-100.00,North,-999,-999.0,-999.0,41,-99.99,,---,-99.99,VWS V14.01,2013-11-01 02:13:00,
2013-10-31 19:18:00,66.9,42.5,-100.00,North,-999,-999.0,-999.0,41,-99.99,,---,-99.99,VWS V14.01,2013-11-01 02:18:00,
2013-10-31 19:23:00,66.9,42.5,-100.00,North,-999,-999.0,-999.0,41,-99.99,,---,-99.99,VWS V14.01,2013-11-01 02:23:00,
2013-10-31 19:28:00,66.7,42.3,-100.00,North,-999,-999.0,-999.0,41,-99.99,,---,-99.99,VWS V14.01,2013-11-01 02:28:00,
2013-10-31 19:33:00,66.6,42.8,-100.00,North,-999,-999.0,-999.0,42,-99.99,,---,-99.99,VWS V14.01,2013-11-01 02:33:00,
2013-10-31 19:38:00,66.4,42.6,-100.00,North,-999,-999.0,-999.0,42,-99.99,,---,-99.99,VWS V14.01,2013-11-01 02:38:00,
2013-10-31 19:43:00,66.2,42.5,-100.00,North,-999,-999.0,-999.0,42,-99.99,,---,-99.99,VWS V14.01,2013-11-01 02:43:00,
2013-10-31 19:48:00,66.0,42.3,-100.00,North,-999,-999.0,-999.0,42,-99.99,,---,-99.99,VWS V14.01,2013-11-01 02:48:00,
2013-10-31 19:54:00,65.8,42.1,-100.00,North,-999,-999.0,-999.0,42,-99.99,,---,-99.99,VWS V14.01,2013-11-01 02:54:00,
2013-10-31 19:59:00,65.5,41.8,-100.00,North,-999,-999.0,-999.0,42,-99.99,,---,-99.99,VWS V14.01,2013-11-01 02:59:00,
2013-10-31 20:04:00,65.1,41.5,-100.00,North,-999,-999.0,-999.0,42,-99.99,,---,-99.99,VWS V14.01,2013-11-01 03:04:00,
2013-10-31 20:09:00,65.1,41.5,-100.00,North,-999,-999.0,-999.0,42,-99.99,,---,-99.99,VWS V14.01,2013-11-01 03:09:00,
2013-10-31 20:14:00,64.8,41.2,-100.00,North,-999,-999.0,-999.0,42,-99.99,,---,-99.99,VWS V14.01,2013-11-01 03:14:00,
2013-10-31 20:19:00,64.4,40.8,-100.00,North,-999,-999.0,-999.0,42,-99.99,,---,-99.99,VWS V14.01,2013-11-01 03:19:00,
2013-10-31 20:24:00,64.2,40.7,-100.00,North,-999,-999.0,-999.0,42,-99.99,,---,-99.99,VWS V14.01,2013-11-01 03:24:00,
2013-10-31 20:29:00,64.0,41.1,-100.00,North,-999,-999.0,-999.0,43,-99.99,,---,-99.99,VWS V14.01,2013-11-01 03:29:00,
2013-10-31 20:34:00,63.9,41.0,-100.00,North,-999,-999.0,-999.0,43,-99.99,,---,-99.99,VWS V14.01,2013-11-01 03:34:00,
2013-10-31 20:39:00,63.7,40.8,-100.00,North,-999,-999.0,-999.0,43,-99.99,,---,-99.99,VWS V14.01,2013-11-01 03:39:00,
2013-10-31 20:44:00,63.5,40.6,-100.00,North,-999,-999.0,-999.0,43,-99.99,,---,-99.99,VWS V14.01,2013-11-01 03:44:00,
2013-10-31 20:49:00,63.1,40.3,-100.00,North,-999,-999.0,-999.0,43,-99.99,,---,-99.99,VWS V14.01,2013-11-01 03:49:00,
2013-10-31 20:54:00,63.0,40.1,-100.00,North,-999,-999.0,-999.0,43,-99.99,,---,-99.99,VWS V14.01,2013-11-01 03:54:00,
2013-10-31 20:59:00,62.8,40.0,-100.00,North,-999,-999.0,-999.0,43,-99.99,,---,-99.99,VWS V14.01,2013-11-01 03:59:00,
2013-10-31 21:04:00,62.8,40.0,-100.00,North,-999,-999.0,-999.0,43,-99.99,,---,-99.99,VWS V14.01,2013-11-01 04:04:00,
2013-10-31 21:11:00,62.2,39.5,-100.00,North,-999,-999.0,-999.0,43,-99.99,,---,-99.99,VWS V14.01,2013-11-01 04:11:00,
2013-10-31 21:15:00,62.1,39.3,-100.00,North,-999,-999.0,-999.0,43,-99.99,,---,-99.99,VWS V14.01,2013-11-01 04:15:00,
2013-10-31 21:17:00,61.9,39.2,-100.00,North,-999,-999.0,-999.0,43,-99.99,,---,-99.99,VWS V14.01,2013-11-01 04:17:00,
2013-10-31 21:18:00,61.9,39.2,-100.00,North,-999,-999.0,-999.0,43,-99.99,,---,-99.99,VWS V14.01,2013-11-01 04:18:00,
2013-10-31 21:20:00,61.9,39.8,-100.00,North,-999,-999.0,-999.0,44,-99.99,,---,-99.99,VWS V14.01,2013-11-01 04:20:00,
2013-10-31 21:25:00,61.7,39.6,-100.00,North,-999,-999.0,-999.0,44,-99.99,,---,-99.99,VWS V14.01,2013-11-01 04:25:00,
2013-10-31 21:31:00,61.3,38.7,-100.00,North,-999,-999.0,-999.0,43,-99.99,,---,-99.99,VWS V14.01,2013-11-01 04:31:00,
2013-10-31 21:36:00,61.0,38.9,-100.00,North,-999,-999.0,-999.0,44,-99.99,,---,-99.99,VWS V14.01,2013-11-01 04:36:00,
2013-10-31 21:41:00,60.8,38.8,-100.00,North,-999,-999.0,-999.0,44,-99.99,,---,-99.99,VWS V14.01,2013-11-01 04:41:00,
2013-10-31 21:46:00,60.6,38.6,-100.00,North,-999,-999.0,-999.0,44,-99.99,,---,-99.99,VWS V14.01,2013-11-01 04:46:00,
2013-10-31 21:51:00,60.4,38.4,-100.00,North,-999,-999.0,-999.0,44,-99.99,,---,-99.99,VWS V14.01,2013-11-01 04:51:00,
2013-10-31 21:56:00,60.1,38.1,-100.00,North,-999,-999.0,-999.0,44,-99.99,,---,-99.99,VWS V14.01,2013-11-01 04:56:00,
2013-10-31 22:01:00,60.1,38.1,-100.00,North,-999,-999.0,-999.0,44,-99.99,,---,-99.99,VWS V14.01,2013-11-01 05:01:00,
2013-10-31 22:06:00,60.1,38.1,-100.00,North,-999,-999.0,-999.0,44,-99.99,,---,-99.99,VWS V14.01,2013-11-01 05:06:00,
2013-10-31 22:11:00,59.9,38.0,-100.00,North,-999,-999.0,-999.0,44,-99.99,,---,-99.99,VWS V14.01,2013-11-01 05:11:00,
2013-10-31 22:16:00,59.9,38.0,-100.00,North,-999,-999.0,-999.0,44,-99.99,,---,-99.99,VWS V14.01,2013-11-01 05:16:00,
2013-10-31 22:21:00,59.7,37.8,-100.00,North,-999,-999.0,-999.0,44,-99.99,,---,-99.99,VWS V14.01,2013-11-01 05:21:00,
2013-10-31 22:26:00,59.4,37.5,-100.00,North,-999,-999.0,-999.0,44,-99.99,,---,-99.99,VWS V14.01,2013-11-01 05:26:00,
2013-10-31 22:31:00,59.4,37.5,-100.00,North,-999,-999.0,-999.0,44,-99.99,,---,-99.99,VWS V14.01,2013-11-01 05:31:00,
2013-10-31 22:36:00,59.2,37.3,-100.00,North,-999,-999.0,-999.0,44,-99.99,,---,-99.99,VWS V14.01,2013-11-01 05:36:00,
2013-10-31 22:41:00,59.0,37.1,-100.00,North,-999,-999.0,-999.0,44,-99.99,,---,-99.99,VWS V14.01,2013-11-01 05:41:00,
2013-10-31 22:46:00,58.8,37.5,-100.00,North,-999,-999.0,-999.0,45,-99.99,,---,-99.99,VWS V14.01,2013-11-01 05:46:00,
2013-10-31 22:48:00,58.8,37.5,-100.00,North,-999,-999.0,-999.0,45,-99.99,,---,-99.99,VWS V14.01,2013-11-01 05:48:00,
2013-10-31 22:53:00,58.8,37.5,-100.00,North,-999,-999.0,-999.0,45,-99.99,,---,-99.99,VWS V14.01,2013-11-01 05:53:00,
2013-10-31 22:59:00,58.6,37.4,-100.00,North,-999,-999.0,-999.0,45,-99.99,,---,-99.99,VWS V14.01,2013-11-01 05:59:00,
2013-10-31 23:05:00,58.5,37.2,-100.00,North,-999,-999.0,-999.0,45,-99.99,,---,-99.99,VWS V14.01,2013-11-01 06:05:00,
2013-10-31 23:10:00,58.5,37.2,-100.00,North,-999,-999.0,-999.0,45,-99.99,,---,-99.99,VWS V14.01,2013-11-01 06:10:00,
2013-10-31 23:15:00,58.3,37.0,-100.00,North,-999,-999.0,-999.0,45,-99.99,,---,-99.99,VWS V14.01,2013-11-01 06:15:00,
2013-10-31 23:21:00,58.1,36.9,-100.00,North,-999,-999.0,-999.0,45,-99.99,,---,-99.99,VWS V14.01,2013-11-01 06:21:00,
2013-10-31 23:27:00,57.9,36.7,-100.00,North,-999,-999.0,-999.0,45,-99.99,,---,-99.99,VWS V14.01,2013-11-01 06:27:00,
2013-10-31 23:32:00,57.9,36.7,-100.00,North,-999,-999.0,-999.0,45,-99.99,,---,-99.99,VWS V14.01,2013-11-01 06:32:00,
2013-10-31 23:37:00,57.7,36.6,-100.00,North,-999,-999.0,-999.0,45,-99.99,,---,-99.99,VWS V14.01,2013-11-01 06:37:00,
2013-10-31 23:42:00,57.6,36.4,-100.00,North,-999,-999.0,-999.0,45,-99.99,,---,-99.99,VWS V14.01,2013-11-01 06:42:00,
2013-10-31 23:47:00,57.6,36.4,-100.00,North,-999,-999.0,-999.0,45,-99.99,,---,-99.99,VWS V14.01,2013-11-01 06:47:00,
2013-10-31 23:52:00,57.6,36.4,-100.00,North,-999,-999.0,-999.0,45,-99.99,,---,-99.99,VWS V14.01,2013-11-01 06:52:00,
2013-10-31 23:57:00,57.4,36.2,-100.00,North,-999,-999.0,-999.0,45,-99.99,,---,-99.99,VWS V14.01,2013-11-01 06:57:00,